createdAt,value
2019-05-15T00:02:02.323Z,1.40
2019-05-15T00:04:09.148Z,1.37
2019-05-15T00:06:12.470Z,1.20
2019-05-15T00:08:18.378Z,1.50
2019-05-15T00:10:22.341Z,1.20
2019-05-15T00:12:28.453Z,1.37
2019-05-15T00:14:32.783Z,1.40
2019-05-15T00:16:38.615Z,1.55
2019-05-15T00:18:43.291Z,1.40
2019-05-15T00:20:49.572Z,1.50
2019-05-15T00:22:54.526Z,1.52
2019-05-15T00:25:00.283Z,1.40
2019-05-15T00:27:04.400Z,1.25
2019-05-15T00:29:15.638Z,1.57
2019-05-15T00:31:18.416Z,1.75
2019-05-15T00:33:21.969Z,1.67
2019-05-15T00:35:28.596Z,1.30
2019-05-15T00:37:31.695Z,1.60
2019-05-15T00:39:35.495Z,1.60
2019-05-15T00:41:50.340Z,1.40
2019-05-15T00:43:44.845Z,1.55
2019-05-15T00:45:49.074Z,1.98
2019-05-15T00:47:53.185Z,1.52
2019-05-15T00:49:58.064Z,1.40
2019-05-15T00:52:03.023Z,1.30
2019-05-15T00:54:08.420Z,1.70
2019-05-15T00:56:12.803Z,1.50
2019-05-15T00:58:19.655Z,1.55
2019-05-15T01:00:42.157Z,1.60
2019-05-15T01:02:48.607Z,1.60
2019-05-15T01:04:52.177Z,1.52
2019-05-15T01:06:58.454Z,1.60
2019-05-15T01:09:02.235Z,1.42
2019-05-15T01:11:06.040Z,1.57
2019-05-15T01:13:10.253Z,1.42
2019-05-15T01:15:14.673Z,1.47
2019-05-15T01:17:18.783Z,1.60
2019-05-15T01:19:22.635Z,1.55
2019-05-15T01:21:27.876Z,1.30
2019-05-15T01:23:32.947Z,1.50
2019-05-15T01:25:39.003Z,1.40
2019-05-15T01:27:42.623Z,1.50
2019-05-15T01:29:49.122Z,1.50
2019-05-15T01:31:52.579Z,1.50
2019-05-15T01:33:58.456Z,1.60
2019-05-15T01:36:02.647Z,1.70
2019-05-15T01:38:08.163Z,2.10
2019-05-15T01:40:12.741Z,1.90
2019-05-15T01:42:18.637Z,1.85
2019-05-15T01:44:22.986Z,1.60
2019-05-15T01:46:28.691Z,2.20
2019-05-15T01:48:32.823Z,1.70
2019-05-15T01:50:38.881Z,2.00
2019-05-15T01:52:42.579Z,1.92
2019-05-15T01:54:48.791Z,1.62
2019-05-15T01:56:52.547Z,1.80
2019-05-15T01:58:57.994Z,1.37
2019-05-15T02:01:02.198Z,1.67
2019-05-15T02:03:06.299Z,1.50
2019-05-15T02:05:10.832Z,1.50
2019-05-15T02:07:14.929Z,1.62
2019-05-15T02:09:19.040Z,1.72
2019-05-15T02:11:22.869Z,1.70
2019-05-15T02:13:28.225Z,2.33
2019-05-15T02:15:32.199Z,2.30
2019-05-15T02:17:39.385Z,1.98
2019-05-15T02:19:42.879Z,1.92
2019-05-15T02:21:48.637Z,2.00
2019-05-15T02:23:53.039Z,1.77
2019-05-15T02:25:58.876Z,1.60
2019-05-15T02:28:04.304Z,1.90
2019-05-15T02:30:21.410Z,1.50
2019-05-15T02:32:15.023Z,1.60
2019-05-15T02:34:19.641Z,1.47
2019-05-15T02:36:23.838Z,1.60
2019-05-15T02:38:29.589Z,1.77
2019-05-15T02:40:33.818Z,1.65
2019-05-15T02:42:39.911Z,1.62
2019-05-15T02:44:49.759Z,1.57
2019-05-15T02:46:52.107Z,1.70
2019-05-15T02:48:59.011Z,1.90
2019-05-15T02:51:02.343Z,2.08
2019-05-15T02:53:09.504Z,2.20
2019-05-15T02:55:11.800Z,2.47
2019-05-15T02:57:18.976Z,2.30
2019-05-15T02:59:21.162Z,2.00
2019-05-15T03:01:25.350Z,1.85
2019-05-15T03:03:31.223Z,1.90
2019-05-15T03:05:35.035Z,1.98
2019-05-15T03:07:40.096Z,1.70
2019-05-15T03:09:44.630Z,1.67
2019-05-15T03:11:49.828Z,1.87
2019-05-15T03:13:54.219Z,2.02
2019-05-15T03:16:00.073Z,1.80
2019-05-15T03:18:04.390Z,1.77
2019-05-15T03:20:10.638Z,1.90
2019-05-15T03:22:14.913Z,1.80
2019-05-15T03:24:19.652Z,1.87
2019-05-15T03:26:23.985Z,1.90
2019-05-15T03:28:29.670Z,2.12
2019-05-15T03:31:04.885Z,2.13
2019-05-15T03:32:46.744Z,1.82
2019-05-15T03:34:47.208Z,1.80
2019-05-15T03:36:52.986Z,2.20
2019-05-15T03:38:58.705Z,2.00
2019-05-15T03:41:03.112Z,1.67
2019-05-15T03:43:09.139Z,2.22
2019-05-15T03:45:12.995Z,2.30
2019-05-15T03:47:19.466Z,2.40
2019-05-15T03:49:22.743Z,2.08
2019-05-15T03:51:29.093Z,1.82
2019-05-15T03:53:33.294Z,2.22
2019-05-15T03:55:40.427Z,2.33
2019-05-15T03:57:44.393Z,1.98
2019-05-15T03:59:49.045Z,2.02
2019-05-15T04:01:53.225Z,2.25
2019-05-15T04:03:59.831Z,2.12
2019-05-15T04:06:04.100Z,2.10
2019-05-15T04:08:10.791Z,2.30
2019-05-15T04:10:15.798Z,2.20
2019-05-15T04:12:19.930Z,2.15
2019-05-15T04:14:24.142Z,2.15
2019-05-15T04:16:29.607Z,2.10
2019-05-15T04:18:34.001Z,1.98
2019-05-15T04:20:40.505Z,2.12
2019-05-15T04:22:43.859Z,2.30
2019-05-15T04:24:49.518Z,2.35
2019-05-15T04:26:55.409Z,2.00
2019-05-15T04:29:00.244Z,2.65
2019-05-15T04:31:04.071Z,2.20
2019-05-15T04:33:09.517Z,2.22
2019-05-15T04:35:14.043Z,2.33
2019-05-15T04:37:19.059Z,2.80
2019-05-15T04:39:23.293Z,2.10
2019-05-15T04:41:29.820Z,2.62
2019-05-15T04:43:43.734Z,2.72
2019-05-15T04:45:39.378Z,2.50
2019-05-15T04:47:43.571Z,2.37
2019-05-15T04:49:50.438Z,2.37
2019-05-15T04:51:53.265Z,2.50
2019-05-15T04:53:58.621Z,2.45
2019-05-15T04:56:02.934Z,2.00
2019-05-15T04:58:09.694Z,2.42
2019-05-15T05:00:13.341Z,2.30
2019-05-15T05:02:26.466Z,2.47
2019-05-15T05:04:23.770Z,2.40
2019-05-15T05:06:29.440Z,2.33
2019-05-15T05:08:33.939Z,2.85
2019-05-15T05:10:39.619Z,2.50
2019-05-15T05:12:44.003Z,2.27
2019-05-15T05:14:48.465Z,2.00
2019-05-15T05:16:52.607Z,2.10
2019-05-15T05:18:59.237Z,2.10
2019-05-15T05:21:02.275Z,2.25
2019-05-15T05:23:08.414Z,1.82
2019-05-15T05:25:11.694Z,2.37
2019-05-15T05:27:15.492Z,2.58
2019-05-15T05:29:19.628Z,2.08
2019-05-15T05:31:23.758Z,2.40
2019-05-15T05:33:28.643Z,1.92
2019-05-15T05:35:33.014Z,3.33
2019-05-15T05:37:38.867Z,2.15
2019-05-15T05:39:42.862Z,2.40
2019-05-15T05:41:48.745Z,2.70
2019-05-15T05:43:53.017Z,2.17
2019-05-15T05:45:58.240Z,2.83
2019-05-15T05:48:02.187Z,2.20
2019-05-15T05:50:08.200Z,2.10
2019-05-15T05:52:12.087Z,2.15
2019-05-15T05:54:18.242Z,1.90
2019-05-15T05:56:22.088Z,1.80
2019-05-15T05:58:26.208Z,2.08
2019-05-15T06:00:43.405Z,2.33
2019-05-15T06:02:51.418Z,1.60
2019-05-15T06:04:53.206Z,1.90
2019-05-15T06:07:07.168Z,2.30
2019-05-15T06:09:04.465Z,1.90
2019-05-15T06:11:09.747Z,2.15
2019-05-15T06:13:13.899Z,1.75
2019-05-15T06:15:18.029Z,2.00
2019-05-15T06:17:22.238Z,2.15
2019-05-15T06:19:27.783Z,1.72
2019-05-15T06:21:32.388Z,1.92
2019-05-15T06:23:38.171Z,2.00
2019-05-15T06:25:42.475Z,1.55
2019-05-15T06:27:48.157Z,1.65
2019-05-15T06:29:52.094Z,1.72
2019-05-15T06:31:55.896Z,1.55
2019-05-15T06:33:59.715Z,1.98
2019-05-15T06:36:03.937Z,2.05
2019-05-15T06:38:08.516Z,1.90
2019-05-15T06:40:12.496Z,1.85
2019-05-15T06:42:18.836Z,1.90
2019-05-15T06:44:22.532Z,2.00
2019-05-15T06:46:28.171Z,1.80
2019-05-15T06:48:32.401Z,1.82
2019-05-15T06:50:41.337Z,2.02
2019-05-15T06:52:45.153Z,2.17
2019-05-15T06:54:48.952Z,1.80
2019-05-15T06:56:53.130Z,1.55
2019-05-15T06:58:58.189Z,1.45
2019-05-15T07:01:02.282Z,1.87
2019-05-15T07:03:20.258Z,1.85
2019-05-15T07:05:12.430Z,1.52
2019-05-15T07:07:18.170Z,1.60
2019-05-15T07:09:22.000Z,1.72
2019-05-15T07:11:28.072Z,1.57
2019-05-15T07:13:31.954Z,1.60
2019-05-15T07:15:38.284Z,1.60
2019-05-15T07:17:42.016Z,1.50
2019-05-15T07:19:48.369Z,1.85
2019-05-15T07:21:51.390Z,2.00
2019-05-15T07:23:58.151Z,1.62
2019-05-15T07:26:01.527Z,1.60
2019-05-15T07:28:05.650Z,1.35
2019-05-15T07:30:12.212Z,1.70
2019-05-15T07:32:19.050Z,1.60
2019-05-15T07:34:22.462Z,1.42
2019-05-15T07:36:28.616Z,1.60
2019-05-15T07:38:31.820Z,1.80
2019-05-15T07:40:38.329Z,2.05
2019-05-15T07:42:41.586Z,1.92
2019-05-15T07:44:48.206Z,1.32
2019-05-15T07:46:52.160Z,1.43
2019-05-15T07:48:58.250Z,2.00
2019-05-15T07:51:01.346Z,1.47
2019-05-15T07:53:05.501Z,1.63
2019-05-15T07:55:10.042Z,1.70
2019-05-15T07:57:13.928Z,1.80
2019-05-15T07:59:18.710Z,1.27
2019-05-15T08:01:22.652Z,1.50
2019-05-15T08:03:29.044Z,1.50
2019-05-15T08:05:32.012Z,1.40
2019-05-15T08:07:35.919Z,1.80
2019-05-15T08:09:39.449Z,1.33
2019-05-15T08:11:42.968Z,1.90
2019-05-15T08:13:48.647Z,1.50
2019-05-15T08:15:52.337Z,1.73
2019-05-15T08:18:05.442Z,1.37
2019-05-15T08:20:01.807Z,1.37
2019-05-15T08:22:05.918Z,1.20
2019-05-15T08:24:09.840Z,1.40
2019-05-15T08:26:13.636Z,1.10
2019-05-15T08:28:18.973Z,0.90
2019-05-15T08:30:23.374Z,1.00
2019-05-15T08:32:28.023Z,1.00
2019-05-15T08:34:31.908Z,1.20
2019-05-15T08:36:35.790Z,1.00
2019-05-15T08:38:39.620Z,1.10
2019-05-15T08:40:43.186Z,0.83
2019-05-15T08:42:54.593Z,1.20
2019-05-15T08:44:52.254Z,1.07
2019-05-15T08:46:59.246Z,1.60
2019-05-15T08:49:03.062Z,1.20
2019-05-15T08:51:08.703Z,1.43
2019-05-15T08:53:12.293Z,1.23
2019-05-15T08:55:16.210Z,1.10
2019-05-15T08:57:20.602Z,1.50
2019-05-15T08:59:25.023Z,1.40
2019-05-15T09:01:28.882Z,1.33
2019-05-15T09:03:32.831Z,1.33
2019-05-15T09:05:38.738Z,1.00
2019-05-15T09:07:41.915Z,1.10
2019-05-15T09:09:45.772Z,1.70
2019-05-15T09:11:49.581Z,1.60
2019-05-15T09:13:54.299Z,1.50
2019-05-15T09:15:59.134Z,1.53
2019-05-15T09:18:12.392Z,1.43
2019-05-15T09:20:09.931Z,1.40
2019-05-15T09:22:13.731Z,1.10
2019-05-15T09:24:19.908Z,1.40
2019-05-15T09:26:23.264Z,1.40
2019-05-15T09:28:29.280Z,1.70
2019-05-15T09:30:32.806Z,1.43
2019-05-15T09:32:39.114Z,1.33
2019-05-15T09:34:50.454Z,1.30
2019-05-15T09:36:48.777Z,1.73
2019-05-15T09:38:52.729Z,1.50
2019-05-15T09:40:58.565Z,1.67
2019-05-15T09:43:01.902Z,1.47
2019-05-15T09:45:08.883Z,1.73
2019-05-15T09:47:12.690Z,1.50
2019-05-15T09:49:18.231Z,1.77
2019-05-15T09:51:21.928Z,2.00
2019-05-15T09:53:28.313Z,2.23
2019-05-15T09:55:31.458Z,2.60
2019-05-15T09:57:34.999Z,3.17
2019-05-15T09:59:39.111Z,3.37
2019-05-15T10:01:43.064Z,3.53
2019-05-15T10:03:48.420Z,4.10
2019-05-15T10:05:52.416Z,3.53
2019-05-15T10:07:55.966Z,3.57
2019-05-15T10:09:59.495Z,2.87
2019-05-15T10:12:03.755Z,2.73
2019-05-15T10:14:09.834Z,2.33
2019-05-15T10:16:12.882Z,2.37
2019-05-15T10:18:19.134Z,2.30
2019-05-15T10:20:23.042Z,2.10
2019-05-15T10:22:28.279Z,1.53
2019-05-15T10:24:32.278Z,2.10
2019-05-15T10:26:35.807Z,1.73
2019-05-15T10:28:39.789Z,1.73
2019-05-15T10:30:43.305Z,1.70
2019-05-15T10:32:48.705Z,1.50
2019-05-15T10:34:52.612Z,1.63
2019-05-15T10:36:58.762Z,1.40
2019-05-15T10:39:02.122Z,1.77
2019-05-15T10:41:13.812Z,1.60
2019-05-15T10:43:11.338Z,1.43
2019-05-15T10:45:15.334Z,1.50
2019-05-15T10:47:19.239Z,1.50
2019-05-15T10:49:23.143Z,1.40
2019-05-15T10:51:28.578Z,1.43
2019-05-15T10:53:32.674Z,1.80
2019-05-15T10:55:39.421Z,1.67
2019-05-15T10:57:44.152Z,1.80
2019-05-15T10:59:47.880Z,1.60
2019-05-15T11:01:51.897Z,1.60
2019-05-15T11:03:55.480Z,1.60
2019-05-15T11:05:59.292Z,1.90
2019-05-15T11:08:03.272Z,1.90
2019-05-15T11:10:08.719Z,1.50
2019-05-15T11:12:12.650Z,1.63
2019-05-15T11:14:18.267Z,1.67
2019-05-15T11:16:21.793Z,1.67
2019-05-15T11:18:30.508Z,2.10
2019-05-15T11:20:30.612Z,1.60
2019-05-15T11:22:34.445Z,1.70
2019-05-15T11:24:38.656Z,2.00
2019-05-15T11:26:42.261Z,1.83
2019-05-15T11:28:49.410Z,2.00
2019-05-15T11:30:51.384Z,1.93
2019-05-15T11:32:55.290Z,1.63
2019-05-15T11:34:59.195Z,2.07
2019-05-15T11:37:03.166Z,1.83
2019-05-15T11:39:08.389Z,1.60
2019-05-15T11:41:12.078Z,2.13
2019-05-15T11:43:15.938Z,2.07
2019-05-15T11:45:20.246Z,2.20
2019-05-15T11:47:24.155Z,2.50
2019-05-15T11:49:29.038Z,2.10
2019-05-15T11:51:33.101Z,2.10
2019-05-15T11:53:36.619Z,1.90
2019-05-15T11:55:40.509Z,1.87
2019-05-15T11:57:47.679Z,2.10
2019-05-15T11:59:55.230Z,2.17
2019-05-15T12:01:55.395Z,2.50
2019-05-15T12:03:59.034Z,2.13
2019-05-15T12:06:14.932Z,2.03
2019-05-15T12:08:10.671Z,2.10
2019-05-15T12:10:15.287Z,2.07
2019-05-15T12:12:19.115Z,2.20
2019-05-15T12:14:23.045Z,2.40
2019-05-15T12:16:29.009Z,2.40
2019-05-15T12:18:32.154Z,2.20
2019-05-15T12:20:35.748Z,2.30
2019-05-15T12:22:39.588Z,2.17
2019-05-15T12:24:43.470Z,2.37
2019-05-15T12:26:48.902Z,2.13
2019-05-15T12:28:52.628Z,2.10
2019-05-15T12:30:59.579Z,2.60
2019-05-15T12:33:02.052Z,2.40
2019-05-15T12:35:06.983Z,1.90
2019-05-15T12:37:10.601Z,2.57
2019-05-15T12:39:19.989Z,2.20
2019-05-15T13:00:10.742Z,2.40
2019-05-15T13:02:14.654Z,2.20
2019-05-15T13:04:19.979Z,2.63
2019-05-15T13:06:23.894Z,2.43
2019-05-15T13:08:29.126Z,2.30
2019-05-15T13:10:33.152Z,2.20
2019-05-15T13:12:43.184Z,2.27
2019-05-15T13:14:42.497Z,2.57
2019-05-15T13:16:48.038Z,2.00
2019-05-15T13:18:51.723Z,2.40
2019-05-15T13:20:56.806Z,2.47
2019-05-15T13:23:01.914Z,3.03
2019-05-15T13:25:08.623Z,2.20
2019-05-15T13:27:12.581Z,2.77
2019-05-15T13:29:18.197Z,2.93
2019-05-15T13:31:22.148Z,2.33
2019-05-15T13:33:25.666Z,2.27
2019-05-15T13:35:29.521Z,2.50
2019-05-15T13:37:33.439Z,2.00
2019-05-15T13:39:39.045Z,2.13
2019-05-15T13:41:42.886Z,2.57
2019-05-15T13:43:49.083Z,1.90
2019-05-15T13:45:52.319Z,2.57
2019-05-15T13:47:56.145Z,2.17
2019-05-15T13:50:00.043Z,1.97
2019-05-15T13:52:03.946Z,1.80
2019-05-15T13:54:08.670Z,1.80
2019-05-15T13:56:12.678Z,1.80
2019-05-15T13:58:16.602Z,1.53
2019-05-15T14:00:20.483Z,1.93
2019-05-15T14:02:24.019Z,2.90
2019-05-15T14:04:29.868Z,2.67
2019-05-15T14:06:32.787Z,2.30
2019-05-15T14:08:38.352Z,1.70
2019-05-15T14:10:42.382Z,2.33
2019-05-15T14:12:47.823Z,1.83
2019-05-15T14:14:51.928Z,2.10
2019-05-15T14:16:59.077Z,2.17
2019-05-15T14:19:02.006Z,1.90
2019-05-15T14:21:08.758Z,1.90
2019-05-15T14:23:11.841Z,2.10
2019-05-15T14:25:18.138Z,1.80
2019-05-15T14:27:22.223Z,1.70
2019-05-15T14:29:28.962Z,1.83
2019-05-15T14:31:31.761Z,1.80
2019-05-15T14:33:37.935Z,1.70
2019-05-15T14:35:40.913Z,1.83
2019-05-15T14:37:44.830Z,2.07
2019-05-15T14:39:52.321Z,2.07
2019-05-15T14:41:58.207Z,1.83
2019-05-15T14:44:13.247Z,2.27
2019-05-15T14:46:08.197Z,1.60
2019-05-15T14:48:12.123Z,1.97
2019-05-15T14:50:17.251Z,1.90
2019-05-15T14:52:21.089Z,2.10
2019-05-15T14:54:24.971Z,1.90
2019-05-15T14:56:28.510Z,2.10
2019-05-15T14:58:32.040Z,7.17
2019-05-15T15:00:35.968Z,2.80
2019-05-15T15:02:39.580Z,1.70
2019-05-15T15:04:43.467Z,1.63
2019-05-15T15:06:48.773Z,1.57
2019-05-15T15:08:53.191Z,1.60
2019-05-15T15:10:59.405Z,1.90
2019-05-15T15:13:02.599Z,2.07
2019-05-15T15:15:09.976Z,4.17
2019-05-15T15:17:12.236Z,1.70
2019-05-15T15:19:18.384Z,1.80
2019-05-15T15:21:22.711Z,1.50
2019-05-15T15:23:28.380Z,1.97
2019-05-15T15:25:31.849Z,2.80
2019-05-15T15:27:35.387Z,1.77
2019-05-15T15:29:39.249Z,3.60
2019-05-15T15:31:42.779Z,1.90
2019-05-15T15:33:48.532Z,1.60
2019-05-15T15:35:52.506Z,2.30
2019-05-15T15:37:58.044Z,1.90
2019-05-15T15:40:02.056Z,1.93
2019-05-15T15:42:05.657Z,1.73
2019-05-15T15:44:09.670Z,2.00
2019-05-15T15:46:13.575Z,1.77
2019-05-15T15:48:19.318Z,1.63
2019-05-15T15:50:23.412Z,1.67
2019-05-15T15:52:28.936Z,1.50
2019-05-15T15:54:32.442Z,1.80
2019-05-15T15:56:38.986Z,1.77
2019-05-15T15:58:41.614Z,1.97
2019-05-15T16:00:45.515Z,1.43
2019-05-15T16:02:49.328Z,1.40
2019-05-15T16:04:53.326Z,1.80
2019-05-15T16:06:58.896Z,1.90
2019-05-15T16:09:02.692Z,1.50
2019-05-15T16:11:08.295Z,1.53
2019-05-15T16:13:12.318Z,1.60
2019-05-15T16:15:18.100Z,1.40
2019-05-15T16:17:21.784Z,1.87
2019-05-15T16:19:28.202Z,1.50
2019-05-15T16:21:30.915Z,1.50
2019-05-15T16:23:34.814Z,1.70
2019-05-15T16:25:38.733Z,1.20
2019-05-15T16:27:42.538Z,1.60
2019-05-15T16:29:46.111Z,1.60
2019-05-15T16:31:49.931Z,1.77
2019-05-15T16:33:53.820Z,1.83
2019-05-15T16:35:58.233Z,1.60
2019-05-15T16:38:01.732Z,1.13
2019-05-15T16:40:09.846Z,1.57
2019-05-15T16:42:13.648Z,1.67
2019-05-15T16:44:17.555Z,1.97
2019-05-15T16:46:24.231Z,1.43
2019-05-15T16:48:29.097Z,1.13
2019-05-15T16:50:32.235Z,1.10
2019-05-15T16:52:38.488Z,1.20
2019-05-15T16:54:41.588Z,1.33
2019-05-15T16:56:48.528Z,1.33
2019-05-15T16:58:51.029Z,1.10
2019-05-15T17:00:54.586Z,1.07
2019-05-15T17:03:09.251Z,1.40
2019-05-15T17:05:04.602Z,1.13
2019-05-15T17:07:08.226Z,1.43
2019-05-15T17:09:21.143Z,1.33
2019-05-15T17:11:19.712Z,1.20
2019-05-15T17:13:22.984Z,1.17
2019-05-15T17:15:27.961Z,1.30
2019-05-15T17:17:31.808Z,1.30
2019-05-15T17:19:35.407Z,1.37
2019-05-15T17:21:39.318Z,1.23
2019-05-15T17:23:43.126Z,1.27
2019-05-15T17:25:48.807Z,1.13
2019-05-15T17:27:52.563Z,1.17
2019-05-15T17:29:58.461Z,1.33
2019-05-15T17:32:01.633Z,0.97
2019-05-15T17:34:05.224Z,0.90
2019-05-15T17:36:09.139Z,1.00
2019-05-15T17:38:13.238Z,1.00
2019-05-15T17:40:17.905Z,1.03
2019-05-15T17:42:23.399Z,0.87
2019-05-15T17:44:28.662Z,0.90
2019-05-15T17:46:32.384Z,0.90
2019-05-15T17:48:38.643Z,1.00
2019-05-15T17:50:48.557Z,1.07
2019-05-15T17:52:49.099Z,0.90
2019-05-15T17:54:52.650Z,0.80
2019-05-15T17:56:58.447Z,0.90
2019-05-15T17:59:02.126Z,0.90
2019-05-15T18:01:08.538Z,1.33
2019-05-15T18:03:11.768Z,0.70
2019-05-15T18:05:15.776Z,0.97
2019-05-15T18:07:19.605Z,1.00
2019-05-15T18:09:23.686Z,1.23
2019-05-15T18:11:27.878Z,1.10
2019-05-15T18:13:31.710Z,1.20
2019-05-15T18:15:35.222Z,1.00
2019-05-15T18:17:40.119Z,0.90
2019-05-15T18:19:44.664Z,1.03
2019-05-15T18:21:49.768Z,0.93
2019-05-15T18:23:53.895Z,1.23
2019-05-15T18:25:58.433Z,1.00
2019-05-15T18:28:02.425Z,1.00
2019-05-15T18:30:09.333Z,1.00
2019-05-15T18:32:13.401Z,1.10
2019-05-15T18:34:18.792Z,1.20
2019-05-15T18:36:22.336Z,1.00
2019-05-15T18:38:28.143Z,1.17
2019-05-15T18:40:31.789Z,0.90
2019-05-15T18:42:38.619Z,1.10
2019-05-15T18:44:41.228Z,0.90
2019-05-15T18:46:45.132Z,1.10
2019-05-15T18:48:48.946Z,0.90
2019-05-15T18:50:52.767Z,1.10
2019-05-15T18:52:58.371Z,1.52
2019-05-15T18:55:02.245Z,1.10
2019-05-15T18:57:08.489Z,0.90
2019-05-15T18:59:12.044Z,1.03
2019-05-15T19:01:17.838Z,1.05
2019-05-15T19:03:22.863Z,0.98
2019-05-15T19:05:28.058Z,1.07
2019-05-15T19:07:32.079Z,1.10
2019-05-15T19:09:38.526Z,1.10
2019-05-15T19:11:42.145Z,0.90
2019-05-15T19:13:48.149Z,1.57
2019-05-15T19:15:52.546Z,0.93
2019-05-15T19:17:58.572Z,0.85
2019-05-15T19:20:02.586Z,0.90
2019-05-15T19:22:07.869Z,1.10
2019-05-15T19:24:12.236Z,1.05
2019-05-15T19:26:18.275Z,1.15
2019-05-15T19:28:22.294Z,1.10
2019-05-15T19:30:28.735Z,1.00
2019-05-15T19:32:32.589Z,0.90
2019-05-15T19:34:38.736Z,1.00
2019-05-15T19:36:42.621Z,1.30
2019-05-15T19:38:47.991Z,0.90
2019-05-15T19:40:52.184Z,1.20
2019-05-15T19:42:58.679Z,1.20
2019-05-15T19:45:02.246Z,1.15
2019-05-15T19:47:07.960Z,1.05
2019-05-15T19:49:12.097Z,1.42
2019-05-15T19:51:18.148Z,1.10
2019-05-15T19:53:22.070Z,1.75
2019-05-15T19:55:26.282Z,1.10
2019-05-15T19:57:30.405Z,1.32
2019-05-15T19:59:34.614Z,1.35
2019-05-15T20:01:38.816Z,1.20
2019-05-15T20:03:49.696Z,1.07
2019-05-15T20:05:48.687Z,0.90
2019-05-15T20:07:52.789Z,1.27
2019-05-15T20:09:58.420Z,1.00
2019-05-15T20:12:02.642Z,1.17
2019-05-15T20:14:06.454Z,1.07
2019-05-15T20:16:11.966Z,1.05
2019-05-15T20:18:15.778Z,1.22
2019-05-15T20:20:20.020Z,0.90
2019-05-15T20:22:24.223Z,1.10
2019-05-15T20:24:28.850Z,1.00
2019-05-15T20:26:33.056Z,1.37
2019-05-15T20:28:39.177Z,3.02
2019-05-15T20:30:42.808Z,2.40
2019-05-15T20:32:47.908Z,1.00
2019-05-15T20:34:52.159Z,1.30
2019-05-15T20:36:58.655Z,1.12
2019-05-15T20:39:01.808Z,1.12
2019-05-15T20:41:05.622Z,1.20
2019-05-15T20:43:10.145Z,1.30
2019-05-15T20:45:14.441Z,1.37
2019-05-15T20:47:18.816Z,1.10
2019-05-15T20:49:22.752Z,1.00
2019-05-15T20:51:28.839Z,0.90
2019-05-15T20:53:32.429Z,1.20
2019-05-15T20:55:38.053Z,1.20
2019-05-15T20:57:42.383Z,1.07
2019-05-15T20:59:48.073Z,1.57
2019-05-15T21:01:51.998Z,1.00
2019-05-15T21:03:55.831Z,1.15
2019-05-15T21:06:00.878Z,1.17
2019-05-15T21:08:04.821Z,1.40
2019-05-15T21:10:10.189Z,1.02
2019-05-15T21:12:15.139Z,1.17
2019-05-15T21:14:18.940Z,1.15
2019-05-15T21:16:22.760Z,0.95
2019-05-15T21:18:28.823Z,1.10
2019-05-15T21:20:32.711Z,1.07
2019-05-15T21:22:36.819Z,1.20
2019-05-15T21:24:41.040Z,1.00
2019-05-15T21:26:45.150Z,1.20
2019-05-15T21:28:49.365Z,1.15
2019-05-15T21:30:53.473Z,1.15
2019-05-15T21:32:58.253Z,1.15
2019-05-15T21:35:02.521Z,1.42
2019-05-15T21:37:08.544Z,1.40
2019-05-15T21:39:12.574Z,1.10
2019-05-15T21:41:18.800Z,1.42
2019-05-15T21:43:22.642Z,1.50
2019-05-15T21:45:28.899Z,0.90
2019-05-15T21:47:32.705Z,1.10
2019-05-15T21:49:38.819Z,0.93
2019-05-15T21:51:42.379Z,1.10
2019-05-15T21:53:47.694Z,1.32
2019-05-15T21:55:51.999Z,1.02
2019-05-15T21:57:57.768Z,1.17
2019-05-15T22:00:01.964Z,1.10
2019-05-15T22:02:06.484Z,1.20
2019-05-15T22:04:10.587Z,1.27
2019-05-15T22:06:18.297Z,1.37
2019-05-15T22:08:58.421Z,1.40
2019-05-15T22:11:02.661Z,0.95
2019-05-15T22:13:06.652Z,1.40
2019-05-15T22:15:10.971Z,1.27
2019-05-15T22:17:15.186Z,1.42
2019-05-15T22:19:20.777Z,1.00
2019-05-15T22:21:24.695Z,0.90
2019-05-15T22:23:28.857Z,1.20
2019-05-15T22:25:33.016Z,1.50
2019-05-15T22:27:38.332Z,1.52
2019-05-15T22:29:42.621Z,1.32
2019-05-15T22:31:48.546Z,0.98
2019-05-15T22:33:52.273Z,1.20
2019-05-15T22:35:56.869Z,1.10
2019-05-15T22:38:02.347Z,1.27
2019-05-15T22:40:08.927Z,1.17
2019-05-15T22:42:13.224Z,1.20
2019-05-15T22:44:19.164Z,1.27
2019-05-15T22:46:22.976Z,1.30
2019-05-15T22:48:28.697Z,1.37
2019-05-15T22:50:33.045Z,1.30
2019-05-15T22:52:38.804Z,1.35
2019-05-15T22:54:43.099Z,1.30
2019-05-15T22:56:48.293Z,1.40
2019-05-15T22:58:52.765Z,1.27
2019-05-15T23:00:59.511Z,1.42
2019-05-15T23:03:02.416Z,1.25
2019-05-15T23:05:22.992Z,1.62
2019-05-15T23:07:13.427Z,1.40
2019-05-15T23:09:17.903Z,1.20
2019-05-15T23:11:24.583Z,1.50
2019-05-15T23:13:28.623Z,1.32
2019-05-15T23:15:32.924Z,1.50
2019-05-15T23:17:38.268Z,1.30
2019-05-15T23:19:42.409Z,1.45
2019-05-15T23:21:48.580Z,1.42
2019-05-15T23:23:52.435Z,1.30
2019-05-15T23:25:57.810Z,1.30
2019-05-15T23:28:01.985Z,1.37
2019-05-15T23:30:09.082Z,1.40
2019-05-15T23:32:12.365Z,1.60
2019-05-15T23:34:18.718Z,1.60
2019-05-15T23:36:22.095Z,1.60
2019-05-15T23:38:27.948Z,1.20
2019-05-15T23:40:31.850Z,1.20
2019-05-15T23:42:38.624Z,1.30
2019-05-15T23:44:41.530Z,1.40
2019-05-15T23:46:45.621Z,1.50
2019-05-15T23:48:49.735Z,1.40
2019-05-15T23:50:53.835Z,1.42
2019-05-15T23:52:58.479Z,1.52
2019-05-15T23:55:02.790Z,1.47
2019-05-15T23:57:08.909Z,1.45
2019-05-15T23:59:12.439Z,1.32
